Time;durP1;ratioP1;P1;durP2;ratioP2;P2;SDS_P1;SDS_P2;PMS_P1;PMS_P2;Temp;Humidity;BMP_temperature;BMP_pressure;BME280_temperature;BME280_humidity;BME280_pressure;Samples;Min_cycle;Max_cycle;Signal;HPM_P1;HPM_P2
2023/10/14 00:01:34;;;;;;;2.50;2.00;;;;;;;8.49;73.42;99391.56;5019143;28;20128;-53
2023/10/14 00:04:04;;;;;;;6.60;3.05;;;;;;;8.47;74.50;99395.03;5030390;28;20140;-52
2023/10/14 00:06:38;;;;;;;7.93;3.47;;;;;;;8.46;74.14;99407.09;5022483;28;20041;-53
2023/10/14 00:09:11;;;;;;;7.80;3.50;;;;;;;8.46;73.86;99411.38;5015256;28;20056;-51
2023/10/14 00:11:43;;;;;;;12.52;2.42;;;;;;;8.44;74.12;99410.53;5019729;28;20125;-49
2023/10/14 00:14:14;;;;;;;8.65;1.05;;;;;;;8.44;74.41;99421.72;5020981;28;20485;-50
2023/10/14 00:16:49;;;;;;;4.75;2.38;;;;;;;8.43;73.96;99427.75;5022699;28;20045;-52
2023/10/14 00:19:18;;;;;;;9.05;2.22;;;;;;;8.42;73.89;99436.34;5019368;28;20153;-51
2023/10/14 00:21:46;;;;;;;7.00;2.20;;;;;;;8.43;73.58;99438.06;5019836;28;20071;-49
2023/10/14 00:24:25;;;;;;;2.95;2.15;;;;;;;8.44;73.93;99442.34;5022341;28;20049;-51
2023/10/14 00:26:54;;;;;;;8.57;1.95;;;;;;;8.41;73.68;99455.25;5018117;28;20041;-51
2023/10/14 00:29:22;;;;;;;4.20;2.10;;;;;;;8.41;74.17;99464.75;5014690;28;20041;-50
2023/10/14 00:31:52;;;;;;;8.90;1.98;;;;;;;8.40;73.64;99469.03;5019430;28;20044;-51
2023/10/14 00:34:25;;;;;;;1.98;1.48;;;;;;;8.38;73.72;99468.19;5019224;28;20048;-50
2023/10/14 00:36:55;;;;;;;2.97;2.03;;;;;;;8.37;74.62;99474.19;5013571;28;20077;-53
2023/10/14 00:39:26;;;;;;;;;;;;;;;8.28;73.76;99485.41;5015476;28;20077;-50
2023/10/14 00:41:58;;;;;;;3.80;1.88;;;;;;;8.34;74.33;99489.69;5015120;28;19952;-50
2023/10/14 00:44:26;;;;;;;4.57;2.25;;;;;;;8.32;74.38;99491.44;5016424;28;20593;-53
2023/10/14 00:46:55;;;;;;;7.13;1.80;;;;;;;8.30;74.40;99499.16;5006931;28;20111;-53
2023/10/14 00:49:31;;;;;;;7.82;1.58;;;;;;;8.29;74.67;99501.75;5019297;28;20103;-51
2023/10/14 00:52:07;;;;;;;6.45;2.00;;;;;;;8.29;74.12;99514.66;5020863;28;20057;-53
2023/10/14 00:57:39;;;;;;;3.75;0.95;;;;;;;8.27;74.27;99521.56;5021686;28;20436;-52
2023/10/14 01:00:10;;;;;;;4.20;0.65;;;;;;;8.25;74.30;99520.69;5021650;28;20041;-49
2023/10/14 01:02:38;;;;;;;3.90;0.85;;;;;;;8.22;74.29;99525.00;5022099;28;20093;-60
2023/10/14 01:05:10;;;;;;;3.92;0.70;;;;;;;8.22;73.69;99526.72;5018312;28;20700;-49
2023/10/14 01:07:39;;;;;;;4.20;0.85;;;;;;;8.18;73.91;99525.84;5017040;28;20050;-49
2023/10/14 01:10:10;;;;;;;8.73;0.95;;;;;;;8.17;73.76;99533.59;5012425;28;20049;-53
2023/10/14 01:12:40;;;;;;;5.88;0.73;;;;;;;8.15;73.92;99538.78;5015739;28;20550;-49
2023/10/14 01:15:17;;;;;;;;;;;;;;;8.04;74.94;99530.19;5013519;28;20052;-50
2023/10/14 01:17:44;;;;;;;1.98;0.38;;;;;;;8.07;73.75;99532.75;5019368;28;19929;-49
2023/10/14 01:20:26;;;;;;;8.00;0.90;;;;;;;8.08;74.61;99540.47;5025643;28;20128;-50
2023/10/14 01:23:07;;;;;;;6.05;0.90;;;;;;;8.06;74.98;99537.03;5041801;28;20080;-50
2023/10/14 01:25:41;;;;;;;3.58;0.70;;;;;;;8.07;74.86;99540.50;5040878;28;20045;-49
2023/10/14 01:28:12;;;;;;;6.07;0.63;;;;;;;8.05;73.95;99540.50;5039435;28;20049;-51
2023/10/14 01:30:55;;;;;;;3.50;0.88;;;;;;;8.04;73.79;99543.91;5039051;28;20049;-51
2023/10/14 01:33:25;;;;;;;5.18;0.73;;;;;;;8.03;74.96;99549.94;5035980;28;20061;-49
2023/10/14 01:35:52;;;;;;;2.25;0.57;;;;;;;8.03;74.26;99556.81;5035648;28;20132;-51
2023/10/14 01:38:18;;;;;;;5.18;1.10;;;;;;;8.04;74.94;99553.38;5042135;28;20045;-47
2023/10/14 01:40:52;;;;;;;5.35;1.20;;;;;;;8.04;74.99;99558.53;5039119;28;20128;-49
2023/10/14 01:43:24;;;;;;;2.72;0.40;;;;;;;8.04;74.42;99558.53;5042254;28;20088;-53
2023/10/14 01:46:00;;;;;;;3.05;0.43;;;;;;;8.04;74.10;99563.72;5042422;28;20103;-49
2023/10/14 01:48:31;;;;;;;2.25;1.00;;;;;;;8.02;74.40;99565.41;5036103;28;20081;-49
2023/10/14 01:50:58;;;;;;;6.50;0.88;;;;;;;8.02;74.84;99571.44;5038633;28;20053;-49
2023/10/14 01:53:31;;;;;;;1.65;0.70;;;;;;;8.03;74.80;99572.28;5038423;28;20073;-51
2023/10/14 01:56:01;;;;;;;9.57;0.70;;;;;;;8.02;75.08;99578.31;5041011;28;20072;-47
2023/10/14 01:58:32;;;;;;;8.52;1.00;;;;;;;8.02;75.19;99586.91;5036733;28;20076;-50
2023/10/14 02:03:47;;;;;;;2.83;0.88;;;;;;;8.01;74.83;99595.53;5081769;27;20417;-49
2023/10/14 02:06:16;;;;;;;5.30;1.40;;;;;;;8.03;75.20;99587.75;5057956;28;20047;-50
2023/10/14 02:08:46;;;;;;;5.30;1.58;;;;;;;8.03;74.17;99598.06;5057040;28;20049;-49
2023/10/14 02:11:16;;;;;;;6.05;0.80;;;;;;;8.02;74.39;99596.34;5050210;28;20048;-47
2023/10/14 02:13:43;;;;;;;4.78;1.05;;;;;;;8.01;74.51;99594.66;5069561;28;20128;-51
2023/10/14 02:16:10;;;;;;;8.20;1.10;;;;;;;8.01;74.85;99594.66;5058400;28;20098;-48
2023/10/14 02:18:38;;;;;;;3.70;1.50;;;;;;;8.01;74.99;99594.66;5050970;28;20152;-48
2023/10/14 02:21:11;;;;;;;4.57;1.13;;;;;;;7.98;75.42;99598.94;5043615;28;20900;-50
2023/10/14 02:23:47;;;;;;;4.10;1.05;;;;;;;7.97;74.42;99599.78;5035610;28;20128;-50
2023/10/14 02:26:28;;;;;;;2.97;0.60;;;;;;;7.96;74.64;99600.66;5033438;28;20614;-53
2023/10/14 02:28:55;;;;;;;3.92;0.98;;;;;;;7.93;74.46;99608.41;5035676;28;20064;-51
2023/10/14 02:31:35;;;;;;;4.38;1.40;;;;;;;7.94;74.10;99614.44;5027581;28;20049;-52
2023/10/14 02:34:06;;;;;;;6.05;0.75;;;;;;;7.90;74.15;99618.69;5036260;28;20391;-53
2023/10/14 02:36:35;;;;;;;4.70;1.08;;;;;;;7.89;74.04;99622.16;5056455;28;20635;-53
2023/10/14 02:39:07;;;;;;;6.85;0.88;;;;;;;7.85;73.99;99625.59;5057039;28;20680;-52
2023/10/14 02:41:34;;;;;;;7.72;0.52;;;;;;;7.83;75.21;99632.44;5056726;28;20036;-52
2023/10/14 02:46:45;;;;;;;4.63;2.08;;;;;;;7.80;74.42;99642.78;5047930;28;20419;-50
2023/10/14 02:49:14;;;;;;;4.65;2.10;;;;;;;7.79;74.21;99633.28;4999887;28;20058;-53
2023/10/14 02:51:43;;;;;;;2.60;2.10;;;;;;;7.77;74.42;99640.19;4996856;28;20053;-51
2023/10/14 02:54:26;;;;;;;4.43;1.95;;;;;;;7.72;74.38;99633.28;4999416;28;20688;-51
2023/10/14 02:59:43;;;;;;;5.57;0.70;;;;;;;7.67;74.92;99642.72;5050897;27;20982;-50
2023/10/14 03:07:45;;;;;;;11.52;1.45;;;;;;;7.62;74.78;99659.91;5083979;27;20385;-52
2023/10/14 03:12:49;;;;;;;1.92;1.05;;;;;;;7.61;75.08;99677.94;5017308;27;20930;-50
2023/10/14 03:15:19;;;;;;;6.28;0.88;;;;;;;7.61;74.65;99678.81;5000170;28;20046;-50
2023/10/14 03:25:41;;;;;;;4.88;0.85;;;;;;;7.57;75.50;99672.75;5052381;28;20914;-51
2023/10/14 03:28:12;;;;;;;2.08;0.93;;;;;;;7.58;74.63;99679.66;4995049;28;20164;-52
2023/10/14 03:30:44;;;;;;;8.02;0.60;;;;;;;7.57;74.08;99687.38;5000938;28;20042;-49
2023/10/14 03:33:14;;;;;;;2.92;1.08;;;;;;;7.58;74.93;99699.41;5000230;28;20138;-48
2023/10/14 03:35:43;;;;;;;4.18;0.60;;;;;;;7.58;74.81;99699.41;5001115;28;20058;-50
2023/10/14 03:38:33;;;;;;;2.20;0.70;;;;;;;7.58;74.62;99700.28;5000803;28;20535;-50
2023/10/14 03:41:10;;;;;;;5.32;1.05;;;;;;;7.56;75.57;99698.53;4999984;28;20057;-46
2023/10/14 03:43:54;;;;;;;5.60;1.50;;;;;;;7.56;74.26;99695.94;5001520;28;20538;-52
2023/10/14 03:46:24;;;;;;;3.03;0.63;;;;;;;7.56;75.25;99706.25;4999046;28;20048;-53
2023/10/14 03:48:54;;;;;;;4.85;1.30;;;;;;;7.56;74.41;99707.13;5001493;28;20042;-49
2023/10/14 03:51:30;;;;;;;4.95;0.80;;;;;;;7.54;74.31;99708.81;5001633;28;20054;-49
2023/10/14 03:53:58;;;;;;;7.25;0.98;;;;;;;7.54;75.21;99713.13;5000183;28;20274;-47
2023/10/14 03:56:27;;;;;;;5.93;1.40;;;;;;;7.54;75.26;99713.97;4997177;28;20292;-50
2023/10/14 03:58:55;;;;;;;3.67;0.70;;;;;;;7.54;74.45;99723.44;4995740;28;20459;-50
2023/10/14 04:01:24;;;;;;;4.75;0.90;;;;;;;7.52;74.45;99720.84;5000638;28;20073;-49
2023/10/14 04:03:52;;;;;;;1.83;0.32;;;;;;;7.52;74.46;99725.13;5000726;28;20068;-51
2023/10/14 04:06:20;;;;;;;3.00;0.82;;;;;;;7.50;74.52;99722.56;5001812;28;20046;-51
2023/10/14 04:08:48;;;;;;;5.15;0.90;;;;;;;7.49;74.68;99732.88;4982774;28;20050;-50
2023/10/14 04:11:25;;;;;;;4.00;0.75;;;;;;;7.45;75.32;99738.00;4996981;28;20050;-48
2023/10/14 04:14:08;;;;;;;3.47;0.63;;;;;;;7.45;74.22;99735.44;4997042;28;20038;-47
2023/10/14 04:17:09;;;;;;;3.38;0.90;;;;;;;7.43;74.27;99741.44;5000710;28;20042;-50
2023/10/14 04:19:44;;;;;;;3.72;0.85;;;;;;;7.41;74.74;99741.44;5000217;28;20046;-50
2023/10/14 04:22:25;;;;;;;1.70;0.98;;;;;;;7.38;75.24;99743.97;5002303;28;20050;-50
2023/10/14 04:25:00;;;;;;;4.53;1.38;;;;;;;7.38;74.30;99746.56;4995450;28;20053;-48
2023/10/14 04:30:12;;;;;;;6.00;2.40;;;;;;;7.34;74.72;99752.56;5032665;27;20399;-52
2023/10/14 04:32:47;;;;;;;3.03;1.75;;;;;;;7.32;74.60;99749.09;5033859;28;20061;-54
2023/10/14 04:35:22;;;;;;;3.95;1.92;;;;;;;7.30;74.77;99761.13;5030249;28;20048;-52
2023/10/14 04:37:50;;;;;;;3.58;2.47;;;;;;;7.29;75.53;99765.41;5036443;28;20049;-52
2023/10/14 04:42:56;;;;;;;6.25;0.95;;;;;;;7.26;75.49;99762.78;5059836;28;20414;-51
2023/10/14 04:45:30;;;;;;;2.13;0.55;;;;;;;7.26;74.10;99765.38;5021084;27;20486;-53
2023/10/14 04:47:58;;;;;;;4.57;1.00;;;;;;;7.26;75.22;99772.25;5012577;28;20049;-48
2023/10/14 04:50:25;;;;;;;3.60;1.23;;;;;;;7.24;75.42;99771.38;5014586;28;20050;-49
2023/10/14 04:52:52;;;;;;;7.05;0.82;;;;;;;7.24;74.28;99766.22;5009770;28;20049;-51
2023/10/14 04:55:25;;;;;;;5.40;1.13;;;;;;;7.23;74.97;99767.09;5015661;28;20045;-53
2023/10/14 04:58:11;;;;;;;3.22;0.68;;;;;;;7.23;75.62;99772.22;5018549;28;20376;-51
2023/10/14 05:00:42;;;;;;;4.22;0.90;;;;;;;7.20;75.54;99771.34;5014312;28;20085;-52
2023/10/14 05:03:15;;;;;;;2.63;0.85;;;;;;;7.18;75.41;99770.50;5017403;28;20050;-52
2023/10/14 05:05:43;;;;;;;3.67;0.70;;;;;;;7.16;75.90;99777.34;5014525;28;20128;-50
2023/10/14 05:08:15;;;;;;;2.45;0.90;;;;;;;7.16;75.49;99781.63;5014192;28;20738;-49
2023/10/14 05:10:44;;;;;;;1.75;0.50;;;;;;;7.14;75.19;99786.78;5016197;28;20499;-49
2023/10/14 05:13:12;;;;;;;3.70;0.73;;;;;;;7.12;75.35;99783.31;5018336;28;20046;-50
2023/10/14 05:15:41;;;;;;;3.95;1.35;;;;;;;7.12;75.83;99793.63;5016347;28;20054;-47
2023/10/14 05:18:16;;;;;;;7.53;0.70;;;;;;;7.12;75.51;99797.94;5011824;28;20137;-50
2023/10/14 05:20:55;;;;;;;7.65;0.57;;;;;;;7.12;74.78;99798.78;5000616;28;20478;-48
2023/10/14 05:23:30;;;;;;;3.63;0.90;;;;;;;7.10;75.42;99805.63;5003474;28;20069;-53
2023/10/14 05:25:59;;;;;;;5.10;0.70;;;;;;;7.09;75.84;99803.88;5000274;28;20050;-49
2023/10/14 05:28:31;;;;;;;6.35;0.90;;;;;;;7.06;75.65;99814.19;4999697;28;20077;-51
2023/10/14 05:31:00;;;;;;;3.53;0.80;;;;;;;7.07;74.94;99818.50;4998813;28;20112;-52
2023/10/14 05:33:28;;;;;;;1.67;0.40;;;;;;;7.04;74.87;99828.75;4998333;28;20038;-49
2023/10/14 05:35:57;;;;;;;4.47;0.68;;;;;;;7.04;75.02;99831.34;5002395;28;20050;-52
2023/10/14 05:38:24;;;;;;;8.07;0.77;;;;;;;7.04;75.06;99841.63;5000097;28;20042;-53
2023/10/14 05:40:55;;;;;;;3.22;0.65;;;;;;;7.03;75.67;99848.47;4997184;28;20411;-52
2023/10/14 05:43:23;;;;;;;7.53;1.30;;;;;;;7.02;75.30;99845.91;5002776;28;20046;-51
2023/10/14 05:45:54;;;;;;;3.45;0.65;;;;;;;7.01;75.94;99851.91;5000529;28;20057;-52
2023/10/14 05:48:27;;;;;;;1.20;0.60;;;;;;;6.99;75.51;99858.75;4999026;28;20100;-49
2023/10/14 05:50:54;;;;;;;5.75;0.90;;;;;;;6.97;75.77;99863.03;4997842;28;20050;-51
2023/10/14 05:53:21;;;;;;;3.85;0.77;;;;;;;6.96;74.87;99869.91;4994887;28;20053;-50
2023/10/14 05:55:57;;;;;;;2.90;0.80;;;;;;;6.93;74.80;99868.13;4986403;28;20058;-51
2023/10/14 05:58:28;;;;;;;3.83;0.57;;;;;;;6.92;75.33;99871.56;4988867;28;20097;-47
2023/10/14 06:00:56;;;;;;;4.63;0.70;;;;;;;6.92;74.27;99884.44;4985729;28;20042;-52
2023/10/14 06:03:23;;;;;;;1.02;0.68;;;;;;;6.89;74.43;99889.56;4988460;28;20138;-48
2023/10/14 06:05:49;;;;;;;5.32;0.90;;;;;;;6.89;75.73;99892.13;4987081;28;20065;-52
2023/10/14 06:08:16;;;;;;;2.05;0.63;;;;;;;6.89;75.87;99905.00;4989141;28;20507;-48
2023/10/14 06:10:44;;;;;;;3.42;0.63;;;;;;;6.87;75.36;99909.28;4989054;28;20396;-50
2023/10/14 06:13:14;;;;;;;2.63;0.52;;;;;;;6.88;75.28;99916.16;4986771;28;20368;-46
2023/10/14 06:15:42;;;;;;;4.90;0.60;;;;;;;6.88;74.81;99917.88;4986535;28;20052;-48
2023/10/14 06:18:09;;;;;;;3.47;0.90;;;;;;;6.87;74.84;99921.28;4987309;28;20133;-51
2023/10/14 06:20:35;;;;;;;1.92;0.70;;;;;;;6.87;75.41;99922.16;4986448;28;20057;-50
2023/10/14 06:23:02;;;;;;;1.63;0.40;;;;;;;6.86;75.90;99933.28;4988499;28;20503;-50
2023/10/14 06:25:29;;;;;;;4.57;1.27;;;;;;;6.85;75.49;99929.00;4985691;28;20054;-48
2023/10/14 06:27:57;;;;;;;13.85;3.28;;;;;;;6.85;75.77;99928.16;4988911;28;20050;-46
2023/10/14 06:30:28;;;;;;;4.15;1.08;;;;;;;6.84;75.21;99937.56;4981633;28;20050;-51
2023/10/14 06:33:03;;;;;;;6.47;1.38;;;;;;;6.85;74.65;99947.03;4982013;28;20046;-53
2023/10/14 06:35:32;;;;;;;6.13;1.52;;;;;;;6.87;75.00;99940.19;4980116;28;20077;-52
2023/10/14 06:37:59;;;;;;;11.13;2.55;;;;;;;6.89;74.90;99945.34;4976820;28;20129;-53
2023/10/14 06:40:35;;;;;;;9.35;1.98;;;;;;;6.91;74.96;99949.66;4979717;28;20049;-50
2023/10/14 06:43:08;;;;;;;7.90;1.70;;;;;;;6.96;76.46;99951.44;4982279;28;20034;-51
2023/10/14 06:45:37;;;;;;;5.25;1.10;;;;;;;6.99;74.96;99952.31;4985125;28;20503;-53
2023/10/14 06:48:09;;;;;;;2.10;0.55;;;;;;;7.04;75.08;99965.25;4982874;28;20471;-49
2023/10/14 06:50:38;;;;;;;2.15;0.98;;;;;;;7.06;75.14;99972.13;4983320;28;20098;-48
2023/10/14 06:53:08;;;;;;;5.82;0.70;;;;;;;7.08;74.53;99982.47;4979501;28;20054;-51
2023/10/14 06:55:43;;;;;;;3.53;0.70;;;;;;;7.11;75.48;99984.19;4983471;28;20483;-50
2023/10/14 06:58:11;;;;;;;4.43;0.45;;;;;;;7.12;74.72;99981.63;4987786;28;20058;-51
2023/10/14 07:00:39;;;;;;;6.70;1.30;;;;;;;7.15;75.89;99988.53;4984218;28;20418;-50
2023/10/14 07:03:12;;;;;;;4.88;0.63;;;;;;;7.17;74.82;99992.84;4983354;28;20054;-47
2023/10/14 07:05:43;;;;;;;8.93;1.35;;;;;;;7.19;75.44;99996.31;4979581;28;20046;-50
2023/10/14 07:08:11;;;;;;;7.60;1.15;;;;;;;7.22;75.29;100010.09;4985040;28;20053;-51
2023/10/14 07:10:39;;;;;;;6.07;1.85;;;;;;;7.24;75.39;100013.53;4983675;28;20074;-52
2023/10/14 07:13:06;;;;;;;8.00;2.33;;;;;;;7.26;75.26;100025.56;4975799;28;20061;-51
2023/10/14 07:15:38;;;;;;;2.55;0.65;;;;;;;7.33;74.66;100031.69;4985595;28;20141;-52
2023/10/14 07:18:05;;;;;;;3.30;1.05;;;;;;;7.40;75.48;100030.88;4969243;28;20058;-50
2023/10/14 07:20:33;;;;;;;8.07;0.63;;;;;;;7.46;75.63;100038.66;4982171;28;20050;-48
2023/10/14 07:23:02;;;;;;;1.85;0.80;;;;;;;7.56;76.02;100038.75;4983296;28;20086;-48
2023/10/14 07:25:34;;;;;;;6.60;1.17;;;;;;;7.62;76.13;100050.81;4979851;28;20061;-48
2023/10/14 07:28:07;;;;;;;8.25;1.80;;;;;;;7.69;75.34;100053.50;4981638;28;20072;-52
2023/10/14 07:30:35;;;;;;;11.52;2.95;;;;;;;7.76;75.28;100053.53;4980634;28;20515;-49
2023/10/14 07:33:06;;;;;;;4.53;1.52;;;;;;;7.82;74.57;100071.66;4966569;28;20050;-49
2023/10/14 07:35:32;;;;;;;3.60;1.90;;;;;;;7.87;74.82;100082.84;4984469;28;20165;-50
2023/10/14 07:37:59;;;;;;;1.27;0.60;;;;;;;7.91;75.35;100079.44;4981874;28;20109;-53
2023/10/14 07:40:27;;;;;;;7.15;1.83;;;;;;;7.95;74.99;100082.94;4984407;28;20061;-50
2023/10/14 07:42:59;;;;;;;5.00;1.42;;;;;;;7.98;75.46;100086.41;4985721;28;20045;-48
2023/10/14 07:45:29;;;;;;;6.75;1.40;;;;;;;8.01;75.06;100095.03;4979555;28;20076;-51
2023/10/14 07:47:57;;;;;;;1.65;0.65;;;;;;;8.05;75.61;100107.09;4979982;28;20607;-52
2023/10/14 07:50:24;;;;;;;3.53;0.95;;;;;;;8.07;75.06;100108.00;4984848;28;20077;-51
2023/10/14 07:52:54;;;;;;;8.60;1.38;;;;;;;8.11;74.90;100107.16;4984951;28;20058;-46
2023/10/14 07:55:22;;;;;;;17.40;4.22;;;;;;;8.18;74.98;100108.91;4985633;28;20050;-49
2023/10/14 07:57:49;;;;;;;5.32;1.65;;;;;;;8.26;74.92;100110.69;4984457;28;20151;-48
2023/10/14 08:00:17;;;;;;;11.18;2.65;;;;;;;8.39;74.96;100115.09;4981162;28;20133;-46
2023/10/14 08:02:44;;;;;;;10.50;3.33;;;;;;;8.63;75.26;100121.31;4980545;28;20034;-48
2023/10/14 08:05:11;;;;;;;4.05;1.40;;;;;;;9.06;74.61;100114.66;4979481;28;20803;-48
2023/10/14 08:07:41;;;;;;;7.90;2.10;;;;;;;9.25;74.09;100121.63;4980104;28;20649;-49
2023/10/14 08:10:17;;;;;;;15.95;4.45;;;;;;;9.43;73.50;100112.22;4977502;28;20487;-48
2023/10/14 08:12:45;;;;;;;12.23;2.15;;;;;;;9.58;73.36;100108.81;4979093;28;20054;-46
2023/10/14 08:15:14;;;;;;;12.15;3.85;;;;;;;9.93;73.56;100112.31;4978040;28;20100;-47
2023/10/14 08:17:41;;;;;;;21.52;5.95;;;;;;;10.54;73.35;100113.19;4976909;28;20504;-48
2023/10/14 08:20:12;;;;;;;15.70;3.30;;;;;;;11.29;71.77;100118.13;4977243;28;20050;-50
2023/10/14 08:22:41;;;;;;;15.20;3.08;;;;;;;12.04;69.87;100119.44;4979949;28;20151;-50
2023/10/14 08:25:08;;;;;;;5.15;1.27;;;;;;;12.40;69.80;100109.63;4965788;28;20149;-48
2023/10/14 08:27:35;;;;;;;5.63;1.45;;;;;;;12.83;69.00;100123.94;4978559;28;20104;-49
2023/10/14 08:30:10;;;;;;;5.82;1.40;;;;;;;13.48;67.38;100116.22;4981158;28;20043;-48
2023/10/14 08:32:40;;;;;;;6.13;1.35;;;;;;;14.12;66.26;100129.19;4974111;28;20050;-51
2023/10/14 08:35:14;;;;;;;;;;;;;;;14.43;65.37;100126.94;4977924;28;20492;-54
2023/10/14 08:37:47;;;;;;;2.72;0.68;;;;;;;14.46;64.35;100130.34;4976017;28;19930;-51
2023/10/14 08:40:19;;;;;;;4.97;0.88;;;;;;;14.05;64.25;100139.72;4979132;28;20086;-52
2023/10/14 08:42:50;;;;;;;11.63;1.02;;;;;;;13.57;64.60;100147.34;4954128;28;20053;-48
2023/10/14 08:45:20;;;;;;;2.70;0.90;;;;;;;13.22;65.26;100151.22;4977897;28;20061;-51
2023/10/14 08:47:51;;;;;;;7.25;1.30;;;;;;;13.59;66.01;100158.59;4980647;28;20058;-50
2023/10/14 08:50:21;;;;;;;2.15;0.60;;;;;;;14.01;64.52;100158.00;4975849;28;20105;-50
2023/10/14 08:52:49;;;;;;;3.30;1.00;;;;;;;14.85;65.25;100166.19;4977964;28;20082;-50
2023/10/14 08:55:19;;;;;;;5.18;0.75;;;;;;;15.77;63.64;100169.53;4982947;28;20167;-51
2023/10/14 08:57:48;;;;;;;2.67;1.10;;;;;;;16.52;61.62;100178.25;4981488;28;20484;-47
2023/10/14 09:00:20;;;;;;;2.97;0.70;;;;;;;17.27;61.45;100172.84;4979485;28;20398;-54
2023/10/14 09:02:50;;;;;;;4.28;0.73;;;;;;;18.01;59.50;100177.63;4981668;28;20049;-55
2023/10/14 09:05:17;;;;;;;2.15;0.63;;;;;;;18.51;57.33;100178.66;4977271;28;20050;-53
2023/10/14 09:07:45;;;;;;;3.60;1.58;;;;;;;18.97;57.48;100186.69;4975652;28;20198;-55
2023/10/14 09:10:13;;;;;;;4.03;1.10;;;;;;;19.53;56.60;100184.69;4984582;28;20077;-56
2023/10/14 09:12:40;;;;;;;4.32;1.25;;;;;;;20.12;55.48;100183.34;4982516;28;20050;-55
2023/10/14 09:15:07;;;;;;;3.72;0.82;;;;;;;20.50;54.42;100185.31;4980390;28;20057;-55
2023/10/14 09:17:35;;;;;;;2.97;1.05;;;;;;;20.76;52.86;100193.84;4979933;28;20062;-56
2023/10/14 09:20:02;;;;;;;3.47;1.17;;;;;;;20.97;51.63;100192.09;4983744;28;20046;-55
2023/10/14 09:22:33;;;;;;;2.70;1.10;;;;;;;21.03;50.90;100199.72;4978606;28;20053;-53
2023/10/14 09:25:03;;;;;;;3.08;1.17;;;;;;;21.25;50.92;100198.78;4977736;28;20399;-55
2023/10/14 09:27:30;;;;;;;1.75;0.43;;;;;;;21.55;50.93;100200.06;4981133;28;20074;-52
2023/10/14 09:29:58;;;;;;;3.03;0.50;;;;;;;21.74;50.26;100205.34;4988093;28;20042;-57
2023/10/14 09:32:25;;;;;;;3.72;1.00;;;;;;;21.80;48.29;100205.09;4983246;28;20803;-52
2023/10/14 09:34:55;;;;;;;3.10;0.80;;;;;;;21.91;48.45;100207.19;4984106;28;20059;-54
2023/10/14 09:37:23;;;;;;;4.22;0.65;;;;;;;22.11;48.50;100221.19;4981960;28;20061;-53
2023/10/14 09:39:57;;;;;;;4.43;0.90;;;;;;;22.18;47.50;100224.38;4983882;28;20133;-51
2023/10/14 09:42:29;;;;;;;2.00;1.25;;;;;;;22.17;47.47;100225.31;4981429;28;20137;-48
2023/10/14 09:44:57;;;;;;;2.55;0.68;;;;;;;22.30;47.19;100229.09;4983643;28;20125;-49
2023/10/14 09:47:25;;;;;;;1.92;0.93;;;;;;;22.23;46.38;100235.59;4983789;28;20062;-49
2023/10/14 09:49:53;;;;;;;4.32;1.02;;;;;;;22.22;46.13;100233.84;4981205;28;20050;-51
2023/10/14 09:52:21;;;;;;;1.73;1.02;;;;;;;22.14;45.50;100238.66;4984009;28;20042;-48
2023/10/14 09:54:49;;;;;;;3.08;0.60;;;;;;;22.08;45.53;100247.72;4979934;28;20053;-51
2023/10/14 09:57:17;;;;;;;4.70;0.70;;;;;;;22.26;46.37;100250.41;4983272;28;20047;-50
2023/10/14 09:59:46;;;;;;;3.67;0.73;;;;;;;22.41;46.34;100243.50;4985175;28;20050;-49
2023/10/14 10:02:15;;;;;;;2.28;0.90;;;;;;;22.54;45.62;100257.81;4981939;28;20097;-50
2023/10/14 10:04:45;;;;;;;2.20;0.80;;;;;;;22.57;44.72;100273.53;4986925;28;20061;-47
2023/10/14 10:10:28;;;;;;;3.10;1.90;;;;;;;22.46;42.96;100270.53;5021710;28;20425;-47
2023/10/14 10:12:56;;;;;;;4.03;3.72;;;;;;;22.84;43.82;100275.69;5020301;28;20052;-46
2023/10/14 10:15:24;;;;;;;3.20;2.67;;;;;;;23.03;43.55;100280.03;5015494;28;20133;-47
2023/10/14 10:18:00;;;;;;;2.80;2.05;;;;;;;23.13;43.76;100293.63;5015760;28;20116;-46
2023/10/14 10:20:30;;;;;;;2.80;1.88;;;;;;;23.16;43.31;100285.56;4999163;28;20053;-45
2023/10/14 10:23:01;;;;;;;4.32;2.80;;;;;;;22.81;43.39;100291.72;4994712;28;20057;-47
2023/10/14 10:31:09;;;;;;;4.72;0.68;;;;;;;21.57;44.21;100307.13;5024683;28;20413;-47
2023/10/14 10:36:34;;;;;;;2.08;0.77;;;;;;;20.44;45.34;100312.69;5022005;28;20391;-47
2023/10/14 10:39:15;;;;;;;3.88;0.80;;;;;;;20.33;45.40;100309.63;5017099;28;20057;-48
2023/10/14 10:41:43;;;;;;;4.18;1.08;;;;;;;20.20;46.20;100310.13;5025672;28;20490;-49
2023/10/14 10:44:12;;;;;;;2.60;1.35;;;;;;;20.04;46.27;100315.09;5034749;28;20450;-48
2023/10/14 10:46:44;;;;;;;3.95;0.90;;;;;;;20.14;46.05;100315.59;5028077;28;20107;-49
2023/10/14 10:49:14;;;;;;;5.22;1.30;;;;;;;20.11;45.82;100323.59;5061354;28;20053;-46
2023/10/14 10:51:50;;;;;;;4.03;0.80;;;;;;;20.23;46.01;100320.50;5034097;28;20053;-46
2023/10/14 10:54:22;;;;;;;6.68;0.80;;;;;;;20.11;46.20;100323.59;5037450;28;20124;-45
2023/10/14 10:56:50;;;;;;;2.63;0.68;;;;;;;19.92;46.34;100329.53;5034531;28;20045;-50
2023/10/14 10:59:36;;;;;;;2.55;1.05;;;;;;;19.64;46.77;100328.78;5029091;28;20049;-50
2023/10/14 11:02:08;;;;;;;1.92;0.80;;;;;;;19.35;45.98;100337.72;5036162;28;20053;-46
2023/10/14 11:04:35;;;;;;;2.63;0.75;;;;;;;19.14;46.71;100333.13;5035807;28;20077;-50
2023/10/14 11:07:03;;;;;;;3.17;1.05;;;;;;;18.88;46.16;100331.38;5036639;28;20136;-45
2023/10/14 11:09:31;;;;;;;4.28;1.00;;;;;;;18.71;47.74;100332.75;5034157;28;20116;-47
2023/10/14 11:12:03;;;;;;;3.17;1.13;;;;;;;18.45;47.02;100337.06;5025765;28;20049;-49
2023/10/14 11:14:30;;;;;;;3.25;1.10;;;;;;;18.18;48.23;100334.38;5033327;28;20053;-48
2023/10/14 11:16:57;;;;;;;5.35;1.13;;;;;;;17.95;48.19;100330.66;5036467;28;20049;-48
2023/10/14 11:19:26;;;;;;;2.42;1.15;;;;;;;17.83;48.31;100337.09;5040594;28;20099;-51
2023/10/14 11:21:54;;;;;;;2.70;1.08;;;;;;;17.71;48.60;100335.69;5031504;28;20107;-50
2023/10/14 11:24:21;;;;;;;4.18;1.25;;;;;;;17.68;48.49;100335.78;5041387;28;20045;-47
2023/10/14 11:26:49;;;;;;;2.33;1.15;;;;;;;17.59;48.70;100336.00;5039126;28;20134;-51
2023/10/14 11:29:16;;;;;;;5.70;1.00;;;;;;;17.47;48.30;100338.06;5042036;28;20084;-47
2023/10/14 11:31:44;;;;;;;2.75;1.02;;;;;;;17.37;49.07;100331.38;5032265;28;20056;-51
2023/10/14 11:34:12;;;;;;;7.38;2.17;;;;;;;17.32;48.68;100328.88;5038814;28;20310;-47
2023/10/14 11:36:41;;;;;;;3.58;1.45;;;;;;;17.13;48.47;100328.50;5039369;28;20132;-50
2023/10/14 11:39:13;;;;;;;2.83;1.08;;;;;;;17.05;49.16;100330.41;5024333;28;20072;-49
2023/10/14 11:41:41;;;;;;;8.85;1.15;;;;;;;16.85;49.54;100334.38;5036449;28;20050;-51
2023/10/14 11:44:08;;;;;;;3.35;0.68;;;;;;;16.80;49.67;100331.00;5035195;28;20053;-52
2023/10/14 11:46:38;;;;;;;2.17;0.80;;;;;;;16.81;49.65;100337.97;5028137;28;20055;-49
2023/10/14 11:49:14;;;;;;;7.85;1.42;;;;;;;16.72;50.29;100338.19;5010143;28;20085;-47
2023/10/14 11:51:43;;;;;;;4.20;1.95;;;;;;;16.60;49.84;100345.41;5015189;28;20460;-48
2023/10/14 11:54:11;;;;;;;2.08;0.60;;;;;;;16.40;50.41;100344.13;5022121;28;20053;-49
2023/10/14 11:56:40;;;;;;;4.75;0.52;;;;;;;16.33;50.83;100339.91;5018532;28;20052;-50
2023/10/14 11:59:07;;;;;;;1.38;0.70;;;;;;;16.37;50.75;100349.41;5026456;28;20046;-49
2023/10/14 12:01:34;;;;;;;4.63;1.38;;;;;;;16.32;50.79;100352.13;5025341;28;20049;-50
2023/10/14 12:04:02;;;;;;;4.78;1.05;;;;;;;16.29;50.81;100351.34;5025573;28;20052;-45
2023/10/14 12:06:33;;;;;;;6.05;1.00;;;;;;;16.21;50.52;100337.59;5028095;28;20128;-47
2023/10/14 12:09:06;;;;;;;5.63;1.05;;;;;;;15.91;50.27;100341.63;5019831;28;20045;-47
2023/10/14 12:11:41;;;;;;;1.25;0.95;;;;;;;15.66;49.82;100346.47;5019833;28;20085;-47
2023/10/14 12:14:11;;;;;;;4.75;0.70;;;;;;;15.38;50.14;100342.63;5016865;28;20100;-47
2023/10/14 12:16:40;;;;;;;3.70;0.82;;;;;;;15.17;50.33;100356.91;5020001;28;20075;-45
2023/10/14 12:19:11;;;;;;;3.88;0.73;;;;;;;15.13;51.10;100353.47;5025691;28;20042;-45
2023/10/14 12:21:41;;;;;;;5.10;1.13;;;;;;;15.08;51.38;100354.44;5015771;28;20057;-47
2023/10/14 12:24:09;;;;;;;3.55;0.93;;;;;;;14.95;51.64;100357.25;5016017;28;20090;-45
2023/10/14 12:26:43;;;;;;;6.60;1.65;;;;;;;15.04;52.11;100367.53;5016369;28;20053;-46
2023/10/14 12:29:12;;;;;;;3.10;0.52;;;;;;;15.06;51.48;100362.28;5019239;28;20056;-48
2023/10/14 12:31:44;;;;;;;5.35;1.02;;;;;;;14.95;51.56;100364.22;5023762;28;20681;-46
2023/10/14 12:34:13;;;;;;;4.55;1.05;;;;;;;14.77;52.06;100374.91;5023951;28;20049;-47